Time;durP1;ratioP1;P1;durP2;ratioP2;P2;SDS_P1;SDS_P2;PMS_P1;PMS_P2;Temp;Humidity;BMP_temperature;BMP_pressure;BME280_temperature;BME280_humidity;BME280_pressure;Samples;Min_cycle;Max_cycle;Signal;HPM_P1;HPM_P2
2023/04/05 00:00:46;;;;;;;;;;;;;;;15.97;21.18;98642.31;5071622;28;19916;-86
2023/04/05 00:03:12;;;;;;;;;;;;;;;16.16;21.15;98644.25;5064953;28;20018;-86
2023/04/05 00:05:38;;;;;;;;;;;;;;;16.18;20.64;98639.16;5077937;28;19947;-85
2023/04/05 00:08:07;;;;;;;;;;;;;;;16.09;20.30;98635.81;5058842;28;20024;-85
2023/04/05 00:10:33;;;;;;;;;;;;;;;16.06;20.86;98631.81;5070546;28;19920;-85
2023/04/05 00:12:59;;;;;;;;;;;;;;;16.05;21.10;98635.75;5069376;28;20376;-85
2023/04/05 00:15:26;;;;;;;;;;;;;;;16.28;20.53;98633.81;5069722;28;20296;-85
2023/04/05 00:17:55;;;;;;;;;;;;;;;16.47;20.96;98625.44;5068090;28;19962;-84
2023/04/05 00:20:21;;;;;;;;;;;;;;;16.66;20.23;98619.06;5069629;28;20390;-85
2023/04/05 00:22:49;;;;;;;;;;;;;;;16.71;19.82;98617.94;5068911;28;19967;-85
2023/04/05 00:25:15;;;;;;;;;;;;;;;16.86;20.74;98615.03;5072475;28;19961;-84
2023/04/05 00:27:44;;;;;;;;;;;;;;;17.17;20.27;98611.94;5075395;28;19968;-85
2023/04/05 00:30:10;;;;;;;;;;;;;;;17.32;20.92;98615.69;5068787;28;19920;-85
2023/04/05 00:32:36;;;;;;;;;;;;;;;17.27;19.76;98611.25;5068912;28;19920;-85
2023/04/05 00:35:03;;;;;;;;;;;;;;;17.26;19.54;98615.22;5067110;28;19917;-85
2023/04/05 00:37:29;;;;;;;;;;;;;;;17.24;19.27;98612.03;5071695;28;19921;-86
2023/04/05 00:39:56;;;;;;;;;;;;;;;17.32;19.62;98604.59;5067624;28;20004;-86
2023/04/05 00:42:22;;;;;;;;;;;;;;;17.51;20.42;98610.03;5079323;28;20284;-85
2023/04/05 00:44:48;;;;;;;;;;;;;;;17.65;20.03;98603.84;5093315;28;20471;-85
2023/04/05 00:47:14;;;;;;;;;;;;;;;17.65;19.73;98601.88;5079193;28;19956;-85
2023/04/05 00:49:40;;;;;;;;;;;;;;;17.65;20.11;98607.44;5069093;28;19995;-86
2023/04/05 00:52:07;;;;;;;;;;;;;;;17.52;18.93;98608.06;5066124;28;19920;-86
2023/04/05 00:54:33;;;;;;;;;;;;;;;17.33;20.40;98605.38;5081775;28;20388;-85
2023/04/05 00:56:59;;;;;;;;;;;;;;;17.32;19.98;98598.25;5070265;28;20020;-86
2023/04/05 00:59:27;;;;;;;;;;;;;;;17.25;19.77;98598.94;5061115;28;19920;-86
2023/04/05 01:01:59;;;;;;;;;;;;;;;17.24;20.18;98605.69;5070059;28;19921;-87
2023/04/05 01:04:26;;;;;;;;;;;;;;;17.29;20.11;98588.72;5064823;28;19952;-87
2023/04/05 01:06:56;;;;;;;;;;;;;;;17.31;20.29;98596.66;5071114;28;19921;-86
2023/04/05 01:09:35;;;;;;;;;;;;;;;17.38;20.30;98600.31;5074704;28;19951;-86
2023/04/05 01:12:05;;;;;;;;;;;;;;;17.39;19.93;98609.41;5074963;28;19924;-85
2023/04/05 01:14:32;;;;;;;;;;;;;;;17.11;19.36;98601.50;5069238;28;20390;-87
2023/04/05 01:16:58;;;;;;;;;;;;;;;16.67;19.97;98598.47;5069112;28;19924;-86
2023/04/05 01:19:28;;;;;;;;;;;;;;;16.38;20.29;98601.94;5071569;28;19927;-86
2023/04/05 01:21:57;;;;;;;;;;;;;;;16.24;20.52;98608.00;5067883;28;19973;-87
2023/04/05 01:24:32;;;;;;;;;;;;;;;16.34;20.92;98607.41;5070088;28;19960;-86
2023/04/05 01:27:01;;;;;;;;;;;;;;;16.68;20.80;98599.28;5071564;28;20011;-86
2023/04/05 01:29:46;;;;;;;;;;;;;;;16.99;20.63;98596.19;5069561;28;19916;-86
2023/04/05 01:32:33;;;;;;;;;;;;;;;17.13;20.58;98590.84;5063821;28;19921;-86
2023/04/05 01:34:59;;;;;;;;;;;;;;;16.99;19.67;98590.66;5072753;28;19917;-86
2023/04/05 01:37:26;;;;;;;;;;;;;;;16.91;20.29;98594.50;5070210;28;19956;-86
2023/04/05 01:39:53;;;;;;;;;;;;;;;17.03;20.66;98591.50;5071431;28;19939;-86
2023/04/05 01:42:24;;;;;;;;;;;;;;;17.11;20.16;98594.00;5068428;28;19913;-86
2023/04/05 01:44:50;;;;;;;;;;;;;;;17.13;19.90;98594.41;5067162;28;19960;-86
2023/04/05 01:47:16;;;;;;;;;;;;;;;16.98;20.29;98597.38;5068872;28;20288;-86
2023/04/05 01:49:42;;;;;;;;;;;;;;;17.05;20.41;98600.25;5068713;28;20392;-87
2023/04/05 01:52:09;;;;;;;;;;;;;;;16.93;20.83;98597.69;5071918;28;19920;-86
2023/04/05 01:54:35;;;;;;;;;;;;;;;16.83;20.23;98598.31;5064297;28;19927;-86
2023/04/05 01:57:01;;;;;;;;;;;;;;;16.80;20.15;98593.53;5071419;28;20058;-86
2023/04/05 01:59:27;;;;;;;;;;;;;;;16.88;19.55;98598.81;5068098;28;19927;-86
2023/04/05 02:01:53;;;;;;;;;;;;;;;16.75;20.08;98585.53;5064458;28;19929;-86
2023/04/05 02:04:19;;;;;;;;;;;;;;;16.79;19.75;98586.38;5070057;28;19921;-86
2023/04/05 02:06:45;;;;;;;;;;;;;;;16.84;19.75;98591.59;5072165;28;19928;-86
2023/04/05 02:09:11;;;;;;;;;;;;;;;16.95;19.69;98587.81;5069375;28;20265;-85
2023/04/05 02:11:37;;;;;;;;;;;;;;;17.08;19.98;98582.84;5065820;28;19921;-85
2023/04/05 02:14:03;;;;;;;;;;;;;;;17.10;19.00;98583.28;5074031;28;19927;-86
2023/04/05 02:16:32;;;;;;;;;;;;;;;16.97;19.51;98588.25;5074474;28;19933;-85
2023/04/05 02:18:58;;;;;;;;;;;;;;;16.84;19.94;98584.09;5071740;28;19960;-85
2023/04/05 02:21:25;;;;;;;;;;;;;;;16.72;19.37;98581.53;5070290;28;19916;-85
2023/04/05 02:23:51;;;;;;;;;;;;;;;16.75;19.91;98583.56;5076549;28;19963;-85
2023/04/05 02:26:17;;;;;;;;;;;;;;;16.83;19.88;98582.47;5068278;28;19916;-85
2023/04/05 02:28:43;;;;;;;;;;;;;;;16.87;19.63;98583.34;5070231;28;20513;-85
2023/04/05 02:31:10;;;;;;;;;;;;;;;16.87;19.56;98585.31;5068764;28;20279;-86
2023/04/05 02:33:37;;;;;;;;;;;;;;;16.89;19.54;98582.97;5077538;28;19927;-86
2023/04/05 02:36:08;;;;;;;;;;;;;;;16.88;19.35;98584.13;5081511;28;19923;-85
2023/04/05 02:38:34;;;;;;;;;;;;;;;16.84;19.21;98583.28;5071994;28;19983;-85
2023/04/05 02:41:00;;;;;;;;;;;;;;;16.74;19.63;98581.94;5054033;28;20303;-85
2023/04/05 02:43:27;;;;;;;;;;;;;;;16.76;19.10;98573.25;5055094;28;19921;-85
2023/04/05 02:45:53;;;;;;;;;;;;;;;16.52;19.32;98580.03;5070689;28;19931;-85
2023/04/05 02:48:19;;;;;;;;;;;;;;;16.35;20.30;98569.41;5070100;28;20360;-85
2023/04/05 02:50:49;;;;;;;;;;;;;;;16.40;19.55;98580.19;5072133;28;19921;-85
2023/04/05 02:53:16;;;;;;;;;;;;;;;16.48;19.50;98577.16;5073699;28;19916;-85
2023/04/05 02:55:41;;;;;;;;;;;;;;;16.57;19.64;98572.19;5068345;28;20441;-85
2023/04/05 02:58:08;;;;;;;;;;;;;;;16.63;19.71;98567.13;5073150;28;19932;-85
2023/04/05 03:00:35;;;;;;;;;;;;;;;16.42;19.69;98572.28;5073146;28;19917;-84
2023/04/05 03:03:01;;;;;;;;;;;;;;;15.87;19.81;98580.03;5068174;28;19924;-85
2023/04/05 03:05:27;;;;;;;;;;;;;;;15.61;19.90;98579.13;5071106;28;20261;-85
2023/04/05 03:07:53;;;;;;;;;;;;;;;15.36;20.75;98575.00;5073252;28;19921;-85
2023/04/05 03:10:21;;;;;;;;;;;;;;;15.48;20.55;98574.88;5071968;28;19923;-86
2023/04/05 03:12:47;;;;;;;;;;;;;;;15.65;20.66;98578.03;5069363;28;19936;-85
2023/04/05 03:15:13;;;;;;;;;;;;;;;16.07;20.41;98566.13;5071425;28;20309;-85
2023/04/05 03:17:42;;;;;;;;;;;;;;;16.38;19.95;98561.13;5071480;28;20378;-86
2023/04/05 03:20:09;;;;;;;;;;;;;;;16.47;19.61;98572.78;5067934;28;19920;-85
2023/04/05 03:22:35;;;;;;;;;;;;;;;16.61;19.65;98569.47;5062056;28;19920;-85
2023/04/05 03:25:02;;;;;;;;;;;;;;;16.69;19.47;98564.81;5076845;28;19921;-85
2023/04/05 03:27:28;;;;;;;;;;;;;;;16.77;19.41;98567.34;5071315;28;20026;-85
2023/04/05 03:29:54;;;;;;;;;;;;;;;16.70;19.04;98570.00;5070193;28;19921;-85
2023/04/05 03:32:20;;;;;;;;;;;;;;;16.75;19.34;98569.69;5065648;28;19970;-85
2023/04/05 03:34:46;;;;;;;;;;;;;;;16.76;19.32;98568.50;5070650;28;19916;-85
2023/04/05 03:37:12;;;;;;;;;;;;;;;16.97;18.85;98566.06;5067910;28;19924;-85
2023/04/05 03:39:38;;;;;;;;;;;;;;;16.77;19.11;98566.53;5068977;28;19928;-85
2023/04/05 03:42:04;;;;;;;;;;;;;;;16.90;19.30;98565.94;5065948;28;19920;-85
2023/04/05 03:44:30;;;;;;;;;;;;;;;16.96;19.00;98566.44;5069180;28;19928;-85
2023/04/05 03:46:56;;;;;;;;;;;;;;;17.12;18.82;98567.06;5071851;28;19925;-85
2023/04/05 03:49:22;;;;;;;;;;;;;;;17.00;19.03;98568.09;5072794;28;19947;-85
2023/04/05 03:51:49;;;;;;;;;;;;;;;16.79;18.73;98569.75;5072464;28;19920;-85
2023/04/05 03:54:15;;;;;;;;;;;;;;;16.65;18.90;98567.56;5067301;28;20269;-84
2023/04/05 03:56:41;;;;;;;;;;;;;;;16.77;19.19;98567.34;5063261;28;20328;-85
2023/04/05 03:59:07;;;;;;;;;;;;;;;16.73;19.10;98571.25;5072675;28;19924;-85
2023/04/05 04:01:33;;;;;;;;;;;;;;;16.83;18.99;98565.03;5070376;28;20406;-85
2023/04/05 04:03:59;;;;;;;;;;;;;;;16.93;18.62;98567.19;5061855;28;19924;-85
2023/04/05 04:06:26;;;;;;;;;;;;;;;16.91;18.87;98569.53;5065909;28;20308;-87
2023/04/05 04:08:52;;;;;;;;;;;;;;;16.90;19.10;98563.19;5071179;28;19970;-84
2023/04/05 04:11:18;;;;;;;;;;;;;;;17.09;18.59;98565.03;5064656;28;19921;-84
2023/04/05 04:13:44;;;;;;;;;;;;;;;17.14;18.28;98564.69;5063356;28;19924;-84
2023/04/05 04:16:10;;;;;;;;;;;;;;;17.02;18.93;98568.50;5069564;28;20403;-84
2023/04/05 04:18:36;;;;;;;;;;;;;;;16.87;19.06;98577.00;5067383;28;19989;-84
2023/04/05 04:21:05;;;;;;;;;;;;;;;16.95;19.44;98573.16;5066060;28;19990;-84
2023/04/05 04:23:33;;;;;;;;;;;;;;;16.78;18.81;98574.47;5064881;28;19931;-83
2023/04/05 04:26:00;;;;;;;;;;;;;;;16.44;19.36;98576.31;5072724;28;20011;-85
2023/04/05 04:28:26;;;;;;;;;;;;;;;16.26;19.35;98577.97;5065424;28;19944;-83
2023/04/05 04:30:52;;;;;;;;;;;;;;;16.31;19.66;98579.63;5065390;28;20399;-85
2023/04/05 04:33:18;;;;;;;;;;;;;;;16.67;19.85;98581.84;5064673;28;19931;-85
2023/04/05 04:35:45;;;;;;;;;;;;;;;17.03;19.43;98577.63;5068916;28;19977;-85
2023/04/05 04:38:17;;;;;;;;;;;;;;;17.20;19.37;98569.53;5067711;28;19970;-85
2023/04/05 04:40:49;;;;;;;;;;;;;;;17.48;18.86;98584.97;5064862;28;19934;-84
2023/04/05 04:43:26;;;;;;;;;;;;;;;17.27;19.42;98583.50;5067623;28;19921;-87
2023/04/05 04:45:53;;;;;;;;;;;;;;;17.50;19.05;98582.63;5082857;28;19932;-82
2023/04/05 04:48:20;;;;;;;;;;;;;;;17.14;19.21;98584.13;5061716;28;20007;-82
2023/04/05 04:50:47;;;;;;;;;;;;;;;16.77;19.90;98578.44;5068931;28;19927;-85
2023/04/05 04:53:16;;;;;;;;;;;;;;;16.78;20.29;98585.56;5062199;28;20015;-83
2023/04/05 04:55:42;;;;;;;;;;;;;;;17.06;20.29;98576.91;5073433;28;19913;-88
2023/04/05 04:58:09;;;;;;;;;;;;;;;17.35;21.30;98573.31;5065007;28;19952;-84
2023/04/05 05:00:39;;;;;;;;;;;;;;;17.99;20.71;98574.91;5063973;28;20414;-81
2023/04/05 05:03:07;;;;;;;;;;;;;;;18.25;19.77;98573.97;5065728;28;19929;-87
2023/04/05 05:05:33;;;;;;;;;;;;;;;18.22;20.35;98571.94;5069650;28;19982;-84
2023/04/05 05:07:59;;;;;;;;;;;;;;;18.25;21.26;98568.41;5072940;28;19928;-84
2023/04/05 05:10:25;;;;;;;;;;;;;;;18.60;20.38;98569.50;5073207;28;19916;-85
2023/04/05 05:12:51;;;;;;;;;;;;;;;18.41;20.42;98572.50;5073260;28;19931;-84
2023/04/05 05:15:18;;;;;;;;;;;;;;;18.36;21.12;98578.44;5072625;28;19998;-85
2023/04/05 05:17:44;;;;;;;;;;;;;;;18.45;20.76;98575.31;5072492;28;20018;-85
2023/04/05 05:20:10;;;;;;;;;;;;;;;18.43;20.94;98584.06;5073067;28;19920;-85
2023/04/05 05:22:36;;;;;;;;;;;;;;;18.45;22.17;98584.50;5065885;28;20272;-85
2023/04/05 05:25:04;;;;;;;;;;;;;;;18.63;20.78;98573.50;5073615;28;19916;-86
2023/04/05 05:27:30;;;;;;;;;;;;;;;18.57;21.67;98575.88;5073605;28;19916;-86
2023/04/05 05:29:56;;;;;;;;;;;;;;;18.23;21.70;98579.88;5070091;28;19920;-86
2023/04/05 05:32:22;;;;;;;;;;;;;;;17.61;21.67;98581.59;5073152;28;19920;-86
2023/04/05 05:34:48;;;;;;;;;;;;;;;17.49;22.62;98583.78;5073335;28;19927;-86
2023/04/05 05:37:15;;;;;;;;;;;;;;;18.40;21.53;98582.03;5072315;28;19916;-86
2023/04/05 05:39:43;;;;;;;;;;;;;;;18.87;22.13;98572.09;5066117;28;19921;-86
2023/04/05 05:42:09;;;;;;;;;;;;;;;19.55;20.55;98568.53;5053128;28;19917;-87
2023/04/05 05:44:36;;;;;;;;;;;;;;;19.20;21.30;98572.72;5052764;28;19921;-87
2023/04/05 05:47:02;;;;;;;;;;;;;;;19.14;20.80;98576.22;5052278;28;19921;-88
2023/04/05 05:49:28;;;;;;;;;;;;;;;19.25;22.13;98577.13;5062672;28;19944;-89
2023/04/05 05:51:55;;;;;;;;;;;;;;;19.65;20.12;98581.72;5074989;28;19943;-89
2023/04/05 05:54:21;;;;;;;;;;;;;;;19.15;20.58;98581.44;5076861;28;19921;-89
2023/04/05 05:56:47;;;;;;;;;;;;;;;19.07;21.02;98585.34;5076734;28;19920;-89
2023/04/05 05:59:13;;;;;;;;;;;;;;;18.38;20.97;98578.03;5075925;28;19920;-89
2023/04/05 06:01:41;;;;;;;;;;;;;;;18.13;21.54;98580.59;5076345;28;19923;-89
2023/04/05 06:04:07;;;;;;;;;;;;;;;18.09;21.04;98576.97;5095463;28;19966;-89
2023/04/05 06:06:34;;;;;;;;;;;;;;;18.24;21.51;98575.94;5079785;28;19916;-89
2023/04/05 06:09:00;;;;;;;;;;;;;;;18.49;21.39;98573.38;5075566;28;19921;-89
2023/04/05 06:11:26;;;;;;;;;;;;;;;18.45;21.23;98570.59;5075129;28;19916;-89
2023/04/05 06:13:53;;;;;;;;;;;;;;;18.38;21.20;98578.03;5086131;28;20454;-89
2023/04/05 06:16:20;;;;;;;;;;;;;;;18.23;21.74;98581.84;5096558;28;19921;-89
2023/04/05 06:18:46;;;;;;;;;;;;;;;17.35;22.24;98572.50;5091921;28;20344;-89
2023/04/05 06:21:13;;;;;;;;;;;;;;;17.38;22.63;98582.84;5068898;28;19924;-89
2023/04/05 06:23:40;;;;;;;;;;;;;;;17.83;21.85;98571.53;5074312;28;19928;-89
2023/04/05 06:26:07;;;;;;;;;;;;;;;17.98;21.56;98569.69;5076342;28;19978;-89
2023/04/05 06:28:33;;;;;;;;;;;;;;;17.99;21.66;98568.53;5075378;28;19917;-88
2023/04/05 06:30:59;;;;;;;;;;;;;;;17.88;21.36;98572.00;5075943;28;19930;-88
2023/04/05 06:33:25;;;;;;;;;;;;;;;18.78;22.33;98561.31;5075405;28;19955;-89
2023/04/05 06:35:51;;;;;;;;;;;;;;;19.37;20.55;98576.00;5076052;28;19920;-88
2023/04/05 06:38:17;;;;;;;;;;;;;;;19.74;19.92;98571.75;5073979;28;19955;-89
2023/04/05 06:40:44;;;;;;;;;;;;;;;18.82;20.01;98573.25;5077661;28;19920;-88
2023/04/05 06:43:10;;;;;;;;;;;;;;;18.24;21.23;98573.16;5075604;28;19950;-88
2023/04/05 06:45:36;;;;;;;;;;;;;;;18.52;22.06;98572.63;5057825;28;19947;-88
2023/04/05 06:48:02;;;;;;;;;;;;;;;19.00;20.83;98578.94;5067490;28;20007;-88
2023/04/05 06:50:28;;;;;;;;;;;;;;;18.59;21.19;98564.34;5074810;28;20387;-89
2023/04/05 06:52:54;;;;;;;;;;;;;;;18.45;20.97;98576.16;5075568;28;19916;-88
2023/04/05 06:55:21;;;;;;;;;;;;;;;17.76;21.81;98574.25;5075568;28;19975;-88
2023/04/05 06:57:47;;;;;;;;;;;;;;;17.19;21.96;98584.59;5075612;28;19923;-88
2023/04/05 07:00:14;;;;;;;;;;;;;;;17.22;23.07;98581.06;5073062;28;19924;-88
2023/04/05 07:02:41;;;;;;;;;;;;;;;17.60;21.18;98582.78;5074934;28;20332;-89
2023/04/05 07:05:07;;;;;;;;;;;;;;;18.15;21.15;98571.88;5074504;28;19928;-89
2023/04/05 07:07:37;;;;;;;;;;;;;;;18.05;20.45;98580.88;5075246;28;19916;-88
2023/04/05 07:10:04;;;;;;;;;;;;;;;18.08;21.18;98572.59;5074405;28;19928;-88
2023/04/05 07:12:31;;;;;;;;;;;;;;;18.56;20.79;98571.47;5075114;28;20376;-87
2023/04/05 07:14:58;;;;;;;;;;;;;;;18.59;20.46;98570.72;5074734;28;19925;-88
2023/04/05 07:17:24;;;;;;;;;;;;;;;18.57;20.24;98573.09;5074999;28;19979;-88
2023/04/05 07:19:50;;;;;;;;;;;;;;;19.00;20.58;98574.16;5069769;28;19924;-88
2023/04/05 07:22:16;;;;;;;;;;;;;;;19.61;21.09;98564.97;5089713;28;19916;-89
2023/04/05 07:24:45;;;;;;;;;;;;;;;20.11;19.54;98571.50;5109290;28;20367;-88
2023/04/05 07:27:11;;;;;;;;;;;;;;;20.22;19.49;98569.53;5095133;28;19920;-88
2023/04/05 07:29:41;;;;;;;;;;;;;;;20.01;19.21;98566.69;5084788;28;19935;-87
2023/04/05 07:32:07;;;;;;;;;;;;;;;19.37;19.98;98573.22;5054702;28;19967;-87
2023/04/05 07:34:34;;;;;;;;;;;;;;;19.55;20.42;98571.31;5053173;28;20273;-87
2023/04/05 07:37:00;;;;;;;;;;;;;;;19.50;20.09;98578.06;5054720;28;19917;-87
2023/04/05 07:39:26;;;;;;;;;;;;;;;20.35;19.81;98565.16;5069206;28;19920;-87
2023/04/05 07:41:52;;;;;;;;;;;;;;;20.00;19.62;98573.44;5074502;28;19916;-86
2023/04/05 07:44:18;;;;;;;;;;;;;;;20.43;19.27;98558.41;5074301;28;20426;-87
2023/04/05 07:46:44;;;;;;;;;;;;;;;20.08;18.56;98563.09;5073852;28;19921;-86
2023/04/05 07:49:10;;;;;;;;;;;;;;;20.25;19.79;98557.59;5073464;28;20342;-86
2023/04/05 07:51:37;;;;;;;;;;;;;;;20.10;21.75;98567.09;5074304;28;19959;-87
2023/04/05 07:54:06;;;;;;;;;;;;;;;20.58;19.92;98554.41;5074080;28;20352;-86
2023/04/05 07:56:32;;;;;;;;;;;;;;;20.04;19.46;98551.16;5074156;28;19923;-86
2023/04/05 07:58:58;;;;;;;;;;;;;;;19.32;21.21;98566.78;5073137;28;20047;-86
2023/04/05 08:01:27;;;;;;;;;;;;;;;19.88;21.50;98563.44;5073624;28;20445;-86
2023/04/05 08:03:56;;;;;;;;;;;;;;;20.59;20.12;98555.22;5072575;28;19924;-86
2023/04/05 08:06:23;;;;;;;;;;;;;;;19.91;20.62;98564.66;5074120;28;19920;-86
2023/04/05 08:08:49;;;;;;;;;;;;;;;19.03;18.78;98569.81;5073317;28;19955;-87
2023/04/05 08:11:15;;;;;;;;;;;;;;;19.17;21.66;98561.56;5073883;28;19985;-86
2023/04/05 08:13:42;;;;;;;;;;;;;;;19.46;19.87;98554.97;5073362;28;19948;-87
2023/04/05 08:16:09;;;;;;;;;;;;;;;18.95;21.30;98562.63;5073621;28;19924;-87
2023/04/05 08:18:35;;;;;;;;;;;;;;;18.96;21.50;98561.41;5057808;28;19917;-87
2023/04/05 08:21:01;;;;;;;;;;;;;;;19.60;22.29;98559.81;5071978;28;20012;-87
2023/04/05 08:23:27;;;;;;;;;;;;;;;19.74;19.89;98568.22;5073640;28;19923;-86
2023/04/05 08:25:53;;;;;;;;;;;;;;;18.58;21.79;98557.19;5072471;28;19935;-86
2023/04/05 08:28:19;;;;;;;;;;;;;;;15.95;27.38;98569.09;5073565;28;19920;-86
2023/04/05 08:30:45;;;;;;;;;;;;;;;16.91;23.57;98564.78;5072547;28;20380;-86
2023/04/05 08:33:11;;;;;;;;;;;;;;;17.92;24.07;98560.94;5057799;28;19933;-86
2023/04/05 08:35:38;;;;;;;;;;;;;;;17.87;20.87;98556.53;5068877;28;19916;-86
2023/04/05 08:38:05;;;;;;;;;;;;;;;16.99;25.54;98560.94;5073085;28;19956;-86
2023/04/05 08:40:34;;;;;;;;;;;;;;;17.98;23.77;98555.81;5072761;28;19978;-86
2023/04/05 08:43:09;;;;;;;;;;;;;;;19.94;21.19;98547.16;5071861;28;19921;-86
2023/04/05 08:45:39;;;;;;;;;;;;;;;21.05;20.31;98547.59;5073077;28;20395;-87
2023/04/05 08:48:05;;;;;;;;;;;;;;;20.23;21.47;98548.84;5053487;28;19917;-86
2023/04/05 08:50:31;;;;;;;;;;;;;;;19.05;24.46;98545.16;5066776;28;19924;-86
2023/04/05 08:52:57;;;;;;;;;;;;;;;19.30;20.62;98552.47;5073516;28;19916;-86
2023/04/05 08:55:24;;;;;;;;;;;;;;;19.92;21.56;98536.41;5073381;28;20333;-86
2023/04/05 08:57:52;;;;;;;;;;;;;;;20.61;23.07;98542.44;5072112;28;20342;-86
2023/04/05 09:00:19;;;;;;;;;;;;;;;21.47;23.62;98537.50;5072494;28;20277;-86
2023/04/05 09:02:48;;;;;;;;;;;;;;;20.76;22.49;98542.44;5073125;28;20372;-86
2023/04/05 09:05:15;;;;;;;;;;;;;;;20.26;18.84;98539.66;5073383;28;19916;-86
2023/04/05 09:07:42;;;;;;;;;;;;;;;19.25;20.99;98544.47;5073573;28;19920;-86
2023/04/05 09:10:12;;;;;;;;;;;;;;;19.53;21.49;98540.28;5072537;28;20403;-86
2023/04/05 09:12:38;;;;;;;;;;;;;;;19.37;20.77;98540.59;5073248;28;19927;-86
2023/04/05 09:15:05;;;;;;;;;;;;;;;19.34;21.60;98546.94;5073043;28;19920;-86
2023/04/05 09:17:31;;;;;;;;;;;;;;;19.43;22.14;98546.59;5055618;28;20380;-86
2023/04/05 09:19:57;;;;;;;;;;;;;;;17.31;27.22;98544.72;5061210;28;19946;-85
2023/04/05 09:22:23;;;;;;;;;;;;;;;18.61;23.00;98548.06;5073151;28;19917;-86
2023/04/05 09:24:49;;;;;;;;;;;;;;;19.02;22.09;98543.19;5073191;28;19916;-86
2023/04/05 09:27:16;;;;;;;;;;;;;;;20.34;22.73;98543.25;5075646;28;19917;-86
2023/04/05 09:29:43;;;;;;;;;;;;;;;21.30;20.57;98539.97;5076232;28;20429;-86
2023/04/05 09:32:10;;;;;;;;;;;;;;;21.07;19.36;98531.25;5076820;28;19943;-85
2023/04/05 09:34:37;;;;;;;;;;;;;;;18.24;26.42;98544.56;5070204;28;19924;-86
2023/04/05 09:37:16;;;;;;;;;;;;;;;16.39;24.40;98550.88;5060785;28;19916;-85
2023/04/05 09:39:42;;;;;;;;;;;;;;;18.05;22.91;98547.53;5073303;28;19924;-85
2023/04/05 09:42:10;;;;;;;;;;;;;;;18.16;24.10;98540.91;5056577;28;19917;-85
2023/04/05 09:45:06;;;;;;;;;;;;;;;19.00;21.60;98545.53;5056425;28;20300;-85
2023/04/05 09:47:35;;;;;;;;;;;;;;;19.66;22.19;98535.94;5076641;28;19930;-85
2023/04/05 09:50:05;;;;;;;;;;;;;;;20.33;21.63;98536.06;5075608;28;19924;-85
2023/04/05 09:52:31;;;;;;;;;;;;;;;18.77;21.88;98548.56;5076572;28;20375;-85
2023/04/05 09:55:01;;;;;;;;;;;;;;;17.88;23.65;98546.19;5076765;28;19967;-85
2023/04/05 09:57:32;;;;;;;;;;;;;;;18.04;23.27;98541.19;5076047;28;19923;-85
2023/04/05 09:59:58;;;;;;;;;;;;;;;19.37;19.80;98537.81;5075065;28;19921;-85
2023/04/05 10:02:24;;;;;;;;;;;;;;;20.33;19.70;98531.31;5075929;28;19963;-85
2023/04/05 10:04:50;;;;;;;;;;;;;;;18.71;24.43;98541.00;5075829;28;20011;-85
2023/04/05 10:07:17;;;;;;;;;;;;;;;19.58;21.43;98532.31;5076512;28;19916;-85
2023/04/05 10:09:47;;;;;;;;;;;;;;;19.79;26.85;98534.41;5076242;28;19912;-85
2023/04/05 10:12:20;;;;;;;;;;;;;;;19.70;21.70;98523.59;5074947;28;20372;-85
2023/04/05 10:14:46;;;;;;;;;;;;;;;17.51;22.91;98526.75;5070737;28;19916;-84
2023/04/05 10:17:21;;;;;;;;;;;;;;;18.06;23.95;98522.19;5056108;28;20265;-85
2023/04/05 10:20:06;;;;;;;;;;;;;;;18.61;21.69;98523.84;5071335;28;20323;-85
2023/04/05 10:22:35;;;;;;;;;;;;;;;16.99;29.44;98526.88;5073870;28;20007;-84
2023/04/05 10:25:07;;;;;;;;;;;;;;;17.21;25.12;98523.97;5075947;28;19929;-85
2023/04/05 10:27:45;;;;;;;;;;;;;;;16.51;25.02;98525.75;5070225;28;20058;-84
2023/04/05 10:30:11;;;;;;;;;;;;;;;18.37;22.26;98516.06;5074347;28;19928;-85
2023/04/05 10:32:56;;;;;;;;;;;;;;;20.39;21.80;98512.19;5070277;28;20384;-85
2023/04/05 10:35:27;;;;;;;;;;;;;;;21.71;20.37;98505.84;5055744;28;20380;-85
2023/04/05 10:38:10;;;;;;;;;;;;;;;22.91;22.04;98511.34;5054168;28;19917;-85
2023/04/05 10:40:37;;;;;;;;;;;;;;;23.77;20.18;98507.13;5072560;28;19924;-84
2023/04/05 10:43:03;;;;;;;;;;;;;;;24.05;20.87;98506.72;5075530;28;19921;-85
2023/04/05 10:45:30;;;;;;;;;;;;;;;23.63;20.18;98501.69;5071871;28;19921;-85
2023/04/05 10:48:14;;;;;;;;;;;;;;;22.67;18.34;98492.78;5055597;28;20058;-84
2023/04/05 10:50:41;;;;;;;;;;;;;;;21.40;20.59;98507.59;5072537;28;19920;-85
2023/04/05 10:53:08;;;;;;;;;;;;;;;19.70;20.06;98506.91;5075411;28;19917;-85
2023/04/05 10:55:35;;;;;;;;;;;;;;;18.97;25.68;98515.72;5075267;28;20006;-85
2023/04/05 10:58:02;;;;;;;;;;;;;;;18.02;22.30;98521.31;5075383;28;19982;-85
2023/04/05 11:00:28;;;;;;;;;;;;;;;18.03;21.00;98511.00;5074715;28;19920;-86
2023/04/05 11:02:57;;;;;;;;;;;;;;;19.80;21.93;98506.13;5074814;28;19917;-86
2023/04/05 11:05:33;;;;;;;;;;;;;;;20.27;18.80;98509.78;5075289;28;19916;-85
2023/04/05 11:08:06;;;;;;;;;;;;;;;21.12;20.75;98507.72;5074432;28;19983;-86
2023/04/05 11:10:36;;;;;;;;;;;;;;;22.05;19.24;98495.69;5074902;28;20376;-85
2023/04/05 11:13:03;;;;;;;;;;;;;;;22.20;18.84;98497.16;5072622;28;19920;-86
2023/04/05 11:15:33;;;;;;;;;;;;;;;22.12;20.09;98501.22;5070534;28;19970;-85
2023/04/05 11:18:02;;;;;;;;;;;;;;;21.83;20.10;98495.00;5068436;28;20296;-85
2023/04/05 11:20:54;;;;;;;;;;;;;;;21.05;20.52;98504.94;5074652;28;19916;-86
2023/04/05 11:23:21;;;;;;;;;;;;;;;21.01;21.90;98509.69;5065979;28;19943;-86
2023/04/05 11:25:54;;;;;;;;;;;;;;;21.51;21.02;98510.34;5074792;28;19943;-85
2023/04/05 11:28:22;;;;;;;;;;;;;;;19.71;21.86;98516.84;5073842;28;19946;-85
2023/04/05 11:30:52;;;;;;;;;;;;;;;19.16;23.57;98518.22;5074700;28;19920;-85
2023/04/05 11:33:52;;;;;;;;;;;;;;;19.17;22.15;98515.03;5074371;28;19916;-85
2023/04/05 11:36:44;;;;;;;;;;;;;;;19.44;21.22;98518.34;5061358;28;19916;-85
2023/04/05 11:39:22;;;;;;;;;;;;;;;21.16;21.75;98503.72;5061236;28;19920;-85
2023/04/05 11:41:53;;;;;;;;;;;;;;;20.34;21.11;98505.03;5054445;28;20015;-85
2023/04/05 11:44:20;;;;;;;;;;;;;;;20.55;25.23;98504.22;5071894;28;19920;-85
2023/04/05 11:46:46;;;;;;;;;;;;;;;21.49;24.07;98501.56;5055981;28;19921;-85
2023/04/05 11:49:12;;;;;;;;;;;;;;;21.60;21.70;98503.13;5071795;28;19925;-85
2023/04/05 11:51:42;;;;;;;;;;;;;;;21.92;21.06;98497.34;5054369;28;19916;-86
2023/04/05 11:54:08;;;;;;;;;;;;;;;23.14;21.12;98493.88;5066828;28;19941;-85
2023/04/05 11:56:35;;;;;;;;;;;;;;;21.70;26.15;98491.09;5074427;28;19917;-85
2023/04/05 11:59:01;;;;;;;;;;;;;;;21.00;21.24;98489.38;5073450;28;19956;-85
2023/04/05 12:01:27;;;;;;;;;;;;;;;21.47;21.98;98492.81;5073816;28;19924;-85
2023/04/05 12:03:54;;;;;;;;;;;;;;;21.63;20.67;98498.72;5074135;28;19926;-85
2023/04/05 12:06:23;;;;;;;;;;;;;;;21.46;21.68;98492.00;5074388;28;19920;-85
2023/04/05 12:08:50;;;;;;;;;;;;;;;20.99;25.98;98490.56;5071967;28;19924;-86
2023/04/05 12:11:22;;;;;;;;;;;;;;;19.77;24.37;98489.38;5070614;28;19927;-87
2023/04/05 12:13:52;;;;;;;;;;;;;;;19.16;23.44;98499.50;5058521;28;19924;-87
2023/04/05 12:16:18;;;;;;;;;;;;;;;20.36;23.14;98485.88;5065577;28;19924;-89
2023/04/05 12:18:51;;;;;;;;;;;;;;;18.53;26.28;98501.91;5058390;28;20382;-87
2023/04/05 12:21:17;;;;;;;;;;;;;;;17.78;26.44;98494.91;5053742;28;20003;-87
2023/04/05 12:23:43;;;;;;;;;;;;;;;19.01;23.10;98491.50;5053751;28;19923;-87
2023/04/05 12:26:09;;;;;;;;;;;;;;;20.99;20.95;98484.19;5064038;28;19917;-88
2023/04/05 12:28:52;;;;;;;;;;;;;;;17.93;25.33;98490.28;5071537;28;20007;-87
2023/04/05 12:31:36;;;;;;;;;;;;;;;18.73;22.70;98488.56;5058199;28;19917;-87
2023/04/05 12:34:02;;;;;;;;;;;;;;;20.68;21.19;98483.06;5056728;28;19925;-87
2023/04/05 12:36:30;;;;;;;;;;;;;;;19.55;24.79;98490.53;5070516;28;19928;-87
2023/04/05 12:38:56;;;;;;;;;;;;;;;19.06;22.11;98497.50;5071908;28;19916;-87
2023/04/05 12:41:29;;;;;;;;;;;;;;;17.86;21.80;98498.56;5071272;28;20029;-87
2023/04/05 12:44:04;;;;;;;;;;;;;;;18.76;21.65;98488.59;5070627;28;20070;-87
2023/04/05 12:46:40;;;;;;;;;;;;;;;20.48;21.86;98482.69;5072329;28;19925;-87
2023/04/05 12:49:09;;;;;;;;;;;;;;;21.75;20.74;98484.28;5063499;28;20391;-87
2023/04/05 12:51:36;;;;;;;;;;;;;;;21.82;19.28;98475.84;5072582;28;19927;-86